sensor_id;sensor_type;location;lat;lon;timestamp;P1;durP1;ratioP1;P2;durP2;ratioP2
15297;SDS011;7750;48.796;9.026;2023-05-16T00:00:10;13.90;;;9.43;;
15297;SDS011;7750;48.796;9.026;2023-05-16T00:05:11;11.13;;;9.37;;
15297;SDS011;7750;48.796;9.026;2023-05-16T00:10:13;13.90;;;11.90;;
15297;SDS011;7750;48.796;9.026;2023-05-16T00:15:14;15.67;;;13.77;;
15297;SDS011;7750;48.796;9.026;2023-05-16T00:20:14;15.47;;;13.57;;
15297;SDS011;7750;48.796;9.026;2023-05-16T00:25:18;16.83;;;14.20;;
15297;SDS011;7750;48.796;9.026;2023-05-16T00:30:18;18.37;;;14.30;;
15297;SDS011;7750;48.796;9.026;2023-05-16T00:35:19;17.90;;;14.43;;
15297;SDS011;7750;48.796;9.026;2023-05-16T00:40:20;17.87;;;14.53;;
15297;SDS011;7750;48.796;9.026;2023-05-16T00:45:20;15.83;;;12.73;;
15297;SDS011;7750;48.796;9.026;2023-05-16T00:50:21;18.23;;;13.87;;
15297;SDS011;7750;48.796;9.026;2023-05-16T00:55:22;18.20;;;14.93;;
15297;SDS011;7750;48.796;9.026;2023-05-16T01:00:22;16.27;;;13.80;;
15297;SDS011;7750;48.796;9.026;2023-05-16T01:05:23;17.77;;;14.70;;
15297;SDS011;7750;48.796;9.026;2023-05-16T01:10:25;17.63;;;13.63;;
15297;SDS011;7750;48.796;9.026;2023-05-16T01:15:38;19.90;;;15.60;;
15297;SDS011;7750;48.796;9.026;2023-05-16T01:21:05;18.40;;;14.70;;
15297;SDS011;7750;48.796;9.026;2023-05-16T01:26:22;22.43;;;16.73;;
15297;SDS011;7750;48.796;9.026;2023-05-16T01:31:25;19.40;;;15.83;;
15297;SDS011;7750;48.796;9.026;2023-05-16T01:41:42;21.83;;;17.67;;
15297;SDS011;7750;48.796;9.026;2023-05-16T01:47:00;26.07;;;19.00;;
15297;SDS011;7750;48.796;9.026;2023-05-16T01:52:10;26.73;;;17.77;;
15297;SDS011;7750;48.796;9.026;2023-05-16T01:57:15;31.20;;;20.13;;
15297;SDS011;7750;48.796;9.026;2023-05-16T02:02:19;23.77;;;18.07;;
15297;SDS011;7750;48.796;9.026;2023-05-16T02:07:20;22.13;;;17.23;;
15297;SDS011;7750;48.796;9.026;2023-05-16T02:12:20;26.80;;;20.03;;
15297;SDS011;7750;48.796;9.026;2023-05-16T02:17:21;31.07;;;20.80;;
15297;SDS011;7750;48.796;9.026;2023-05-16T02:22:22;30.97;;;22.50;;
15297;SDS011;7750;48.796;9.026;2023-05-16T02:27:22;27.00;;;20.20;;
15297;SDS011;7750;48.796;9.026;2023-05-16T02:32:23;32.13;;;22.07;;
15297;SDS011;7750;48.796;9.026;2023-05-16T02:37:25;27.27;;;20.53;;
15297;SDS011;7750;48.796;9.026;2023-05-16T02:42:25;30.13;;;22.30;;
15297;SDS011;7750;48.796;9.026;2023-05-16T02:47:27;30.13;;;21.30;;
15297;SDS011;7750;48.796;9.026;2023-05-16T02:52:28;33.17;;;22.10;;
15297;SDS011;7750;48.796;9.026;2023-05-16T02:57:28;28.90;;;21.00;;
15297;SDS011;7750;48.796;9.026;2023-05-16T03:02:29;33.00;;;22.60;;
15297;SDS011;7750;48.796;9.026;2023-05-16T03:07:30;34.40;;;22.30;;
15297;SDS011;7750;48.796;9.026;2023-05-16T03:12:30;37.53;;;22.83;;
15297;SDS011;7750;48.796;9.026;2023-05-16T03:17:31;34.00;;;23.63;;
15297;SDS011;7750;48.796;9.026;2023-05-16T03:22:31;30.83;;;22.40;;
15297;SDS011;7750;48.796;9.026;2023-05-16T03:27:32;35.50;;;25.87;;
15297;SDS011;7750;48.796;9.026;2023-05-16T03:32:33;37.27;;;25.13;;
15297;SDS011;7750;48.796;9.026;2023-05-16T03:37:33;32.43;;;23.50;;
15297;SDS011;7750;48.796;9.026;2023-05-16T03:42:34;33.97;;;24.87;;
15297;SDS011;7750;48.796;9.026;2023-05-16T03:47:35;38.33;;;26.80;;
15297;SDS011;7750;48.796;9.026;2023-05-16T03:52:35;39.80;;;26.67;;
15297;SDS011;7750;48.796;9.026;2023-05-16T03:57:36;47.60;;;32.00;;
15297;SDS011;7750;48.796;9.026;2023-05-16T04:02:38;50.80;;;31.90;;
15297;SDS011;7750;48.796;9.026;2023-05-16T04:07:39;44.37;;;27.67;;
15297;SDS011;7750;48.796;9.026;2023-05-16T04:12:40;44.37;;;28.83;;
15297;SDS011;7750;48.796;9.026;2023-05-16T04:17:41;49.57;;;31.73;;
15297;SDS011;7750;48.796;9.026;2023-05-16T04:22:41;49.33;;;29.57;;
15297;SDS011;7750;48.796;9.026;2023-05-16T04:27:42;50.00;;;33.57;;
15297;SDS011;7750;48.796;9.026;2023-05-16T04:32:43;50.30;;;31.00;;
15297;SDS011;7750;48.796;9.026;2023-05-16T04:37:43;51.00;;;31.60;;
15297;SDS011;7750;48.796;9.026;2023-05-16T04:42:44;45.97;;;30.27;;
15297;SDS011;7750;48.796;9.026;2023-05-16T04:47:45;48.40;;;32.10;;
15297;SDS011;7750;48.796;9.026;2023-05-16T04:52:46;46.17;;;32.00;;
15297;SDS011;7750;48.796;9.026;2023-05-16T04:57:47;50.33;;;33.60;;
15297;SDS011;7750;48.796;9.026;2023-05-16T05:02:47;39.23;;;27.67;;
15297;SDS011;7750;48.796;9.026;2023-05-16T05:07:48;53.23;;;33.17;;
15297;SDS011;7750;48.796;9.026;2023-05-16T05:12:49;49.20;;;33.17;;
15297;SDS011;7750;48.796;9.026;2023-05-16T05:17:49;48.90;;;32.93;;
15297;SDS011;7750;48.796;9.026;2023-05-16T05:22:53;46.63;;;31.37;;
15297;SDS011;7750;48.796;9.026;2023-05-16T05:27:54;43.33;;;28.73;;
15297;SDS011;7750;48.796;9.026;2023-05-16T05:32:54;45.90;;;31.17;;
15297;SDS011;7750;48.796;9.026;2023-05-16T05:37:55;52.70;;;34.27;;
15297;SDS011;7750;48.796;9.026;2023-05-16T05:42:56;45.07;;;30.93;;
15297;SDS011;7750;48.796;9.026;2023-05-16T05:47:56;46.87;;;31.77;;
15297;SDS011;7750;48.796;9.026;2023-05-16T05:52:57;45.20;;;30.60;;
15297;SDS011;7750;48.796;9.026;2023-05-16T05:57:58;43.60;;;30.43;;
15297;SDS011;7750;48.796;9.026;2023-05-16T06:02:58;46.40;;;33.17;;
15297;SDS011;7750;48.796;9.026;2023-05-16T06:07:59;42.83;;;29.10;;
15297;SDS011;7750;48.796;9.026;2023-05-16T06:13:00;39.67;;;27.70;;
15297;SDS011;7750;48.796;9.026;2023-05-16T06:18:00;40.50;;;26.53;;
15297;SDS011;7750;48.796;9.026;2023-05-16T06:23:01;39.13;;;28.40;;
15297;SDS011;7750;48.796;9.026;2023-05-16T06:28:01;37.47;;;26.07;;
15297;SDS011;7750;48.796;9.026;2023-05-16T06:33:02;38.43;;;26.17;;
15297;SDS011;7750;48.796;9.026;2023-05-16T06:38:03;37.07;;;27.50;;
15297;SDS011;7750;48.796;9.026;2023-05-16T06:43:07;33.33;;;23.40;;
15297;SDS011;7750;48.796;9.026;2023-05-16T06:48:07;35.63;;;25.50;;
15297;SDS011;7750;48.796;9.026;2023-05-16T06:53:08;30.90;;;22.40;;
15297;SDS011;7750;48.796;9.026;2023-05-16T06:58:11;40.00;;;25.20;;
15297;SDS011;7750;48.796;9.026;2023-05-16T07:03:11;35.30;;;26.10;;
15297;SDS011;7750;48.796;9.026;2023-05-16T07:08:12;34.70;;;23.37;;
15297;SDS011;7750;48.796;9.026;2023-05-16T07:13:13;31.37;;;22.50;;
15297;SDS011;7750;48.796;9.026;2023-05-16T07:18:14;30.03;;;20.63;;
15297;SDS011;7750;48.796;9.026;2023-05-16T07:23:14;23.20;;;18.07;;
15297;SDS011;7750;48.796;9.026;2023-05-16T07:28:15;25.47;;;18.30;;
15297;SDS011;7750;48.796;9.026;2023-05-16T07:33:16;30.60;;;21.00;;
15297;SDS011;7750;48.796;9.026;2023-05-16T07:38:16;22.90;;;18.10;;
15297;SDS011;7750;48.796;9.026;2023-05-16T07:43:17;28.20;;;19.57;;
15297;SDS011;7750;48.796;9.026;2023-05-16T07:48:18;30.20;;;21.00;;
15297;SDS011;7750;48.796;9.026;2023-05-16T07:53:19;32.97;;;21.20;;
15297;SDS011;7750;48.796;9.026;2023-05-16T07:58:20;27.83;;;21.23;;
15297;SDS011;7750;48.796;9.026;2023-05-16T08:03:21;26.23;;;19.23;;
15297;SDS011;7750;48.796;9.026;2023-05-16T08:08:22;25.07;;;19.90;;
15297;SDS011;7750;48.796;9.026;2023-05-16T08:13:22;27.97;;;20.10;;
15297;SDS011;7750;48.796;9.026;2023-05-16T08:18:23;24.70;;;17.90;;
15297;SDS011;7750;48.796;9.026;2023-05-16T08:23:24;22.50;;;16.00;;
15297;SDS011;7750;48.796;9.026;2023-05-16T08:28:24;20.47;;;15.80;;
15297;SDS011;7750;48.796;9.026;2023-05-16T08:33:25;27.60;;;19.57;;
15297;SDS011;7750;48.796;9.026;2023-05-16T08:38:26;26.27;;;18.93;;
15297;SDS011;7750;48.796;9.026;2023-05-16T08:43:26;26.03;;;17.40;;
15297;SDS011;7750;48.796;9.026;2023-05-16T08:48:27;29.77;;;20.60;;
15297;SDS011;7750;48.796;9.026;2023-05-16T08:53:31;33.40;;;20.97;;
15297;SDS011;7750;48.796;9.026;2023-05-16T08:58:40;26.47;;;18.77;;
15297;SDS011;7750;48.796;9.026;2023-05-16T09:03:40;30.63;;;20.93;;
15297;SDS011;7750;48.796;9.026;2023-05-16T09:08:42;29.80;;;20.10;;
15297;SDS011;7750;48.796;9.026;2023-05-16T09:13:43;33.63;;;21.73;;
15297;SDS011;7750;48.796;9.026;2023-05-16T09:18:52;25.73;;;18.50;;
15297;SDS011;7750;48.796;9.026;2023-05-16T09:23:55;30.00;;;19.93;;
15297;SDS011;7750;48.796;9.026;2023-05-16T09:29:01;37.20;;;24.00;;
15297;SDS011;7750;48.796;9.026;2023-05-16T09:34:12;33.10;;;20.07;;
15297;SDS011;7750;48.796;9.026;2023-05-16T09:39:14;26.40;;;18.70;;
15297;SDS011;7750;48.796;9.026;2023-05-16T09:44:16;27.67;;;19.83;;
15297;SDS011;7750;48.796;9.026;2023-05-16T09:49:17;29.07;;;19.50;;
15297;SDS011;7750;48.796;9.026;2023-05-16T09:54:39;37.57;;;20.30;;
15297;SDS011;7750;48.796;9.026;2023-05-16T09:59:39;22.10;;;17.27;;
15297;SDS011;7750;48.796;9.026;2023-05-16T10:04:39;26.63;;;16.53;;
15297;SDS011;7750;48.796;9.026;2023-05-16T10:09:41;23.03;;;15.83;;
15297;SDS011;7750;48.796;9.026;2023-05-16T10:14:42;17.97;;;13.63;;
15297;SDS011;7750;48.796;9.026;2023-05-16T10:19:45;20.50;;;14.30;;
15297;SDS011;7750;48.796;9.026;2023-05-16T10:24:49;21.23;;;14.63;;
15297;SDS011;7750;48.796;9.026;2023-05-16T10:30:11;17.73;;;13.07;;
15297;SDS011;7750;48.796;9.026;2023-05-16T10:35:12;17.27;;;13.10;;
15297;SDS011;7750;48.796;9.026;2023-05-16T10:40:13;15.93;;;12.33;;
15297;SDS011;7750;48.796;9.026;2023-05-16T10:45:16;17.33;;;12.00;;
15297;SDS011;7750;48.796;9.026;2023-05-16T10:50:39;15.50;;;10.87;;
15297;SDS011;7750;48.796;9.026;2023-05-16T10:55:50;13.03;;;9.70;;
15297;SDS011;7750;48.796;9.026;2023-05-16T11:11:56;17.93;;;9.27;;
15297;SDS011;7750;48.796;9.026;2023-05-16T11:22:09;14.33;;;8.27;;
15297;SDS011;7750;48.796;9.026;2023-05-16T11:27:23;10.63;;;8.07;;
15297;SDS011;7750;48.796;9.026;2023-05-16T11:32:26;10.63;;;8.00;;
15297;SDS011;7750;48.796;9.026;2023-05-16T11:37:26;9.73;;;7.37;;
15297;SDS011;7750;48.796;9.026;2023-05-16T11:42:29;10.27;;;7.80;;
15297;SDS011;7750;48.796;9.026;2023-05-16T11:47:31;7.93;;;6.67;;
15297;SDS011;7750;48.796;9.026;2023-05-16T11:52:31;8.80;;;6.17;;
15297;SDS011;7750;48.796;9.026;2023-05-16T11:57:32;9.10;;;6.60;;
15297;SDS011;7750;48.796;9.026;2023-05-16T12:02:33;7.73;;;6.30;;
15297;SDS011;7750;48.796;9.026;2023-05-16T12:07:33;7.27;;;5.83;;
15297;SDS011;7750;48.796;9.026;2023-05-16T12:12:37;8.93;;;6.40;;
15297;SDS011;7750;48.796;9.026;2023-05-16T12:17:40;11.33;;;6.17;;
15297;SDS011;7750;48.796;9.026;2023-05-16T12:22:41;6.40;;;5.30;;
15297;SDS011;7750;48.796;9.026;2023-05-16T12:27:44;5.53;;;5.00;;
15297;SDS011;7750;48.796;9.026;2023-05-16T12:32:45;5.60;;;4.30;;
15297;SDS011;7750;48.796;9.026;2023-05-16T12:37:52;6.50;;;5.70;;
15297;SDS011;7750;48.796;9.026;2023-05-16T12:42:52;5.90;;;4.60;;
15297;SDS011;7750;48.796;9.026;2023-05-16T12:47:53;5.73;;;4.70;;
15297;SDS011;7750;48.796;9.026;2023-05-16T12:52:57;9.93;;;4.40;;
15297;SDS011;7750;48.796;9.026;2023-05-16T12:57:59;7.53;;;5.13;;
15297;SDS011;7750;48.796;9.026;2023-05-16T13:03:00;4.10;;;3.70;;
15297;SDS011;7750;48.796;9.026;2023-05-16T13:08:01;8.27;;;4.43;;
15297;SDS011;7750;48.796;9.026;2023-05-16T13:13:02;5.50;;;4.07;;
15297;SDS011;7750;48.796;9.026;2023-05-16T13:18:03;5.77;;;4.00;;
15297;SDS011;7750;48.796;9.026;2023-05-16T13:23:04;7.10;;;2.90;;
15297;SDS011;7750;48.796;9.026;2023-05-16T13:28:04;5.53;;;3.40;;
15297;SDS011;7750;48.796;9.026;2023-05-16T13:33:05;3.67;;;3.10;;
15297;SDS011;7750;48.796;9.026;2023-05-16T13:38:05;6.73;;;3.33;;
15297;SDS011;7750;48.796;9.026;2023-05-16T13:43:06;4.90;;;3.47;;
15297;SDS011;7750;48.796;9.026;2023-05-16T13:48:07;5.40;;;3.10;;
15297;SDS011;7750;48.796;9.026;2023-05-16T13:53:07;4.50;;;2.77;;
15297;SDS011;7750;48.796;9.026;2023-05-16T13:58:08;7.83;;;2.50;;
15297;SDS011;7750;48.796;9.026;2023-05-16T14:03:09;3.50;;;2.60;;
15297;SDS011;7750;48.796;9.026;2023-05-16T14:08:09;6.30;;;3.23;;
15297;SDS011;7750;48.796;9.026;2023-05-16T14:13:10;7.97;;;3.03;;
15297;SDS011;7750;48.796;9.026;2023-05-16T14:18:11;4.97;;;2.70;;
15297;SDS011;7750;48.796;9.026;2023-05-16T14:23:12;5.23;;;2.33;;
15297;SDS011;7750;48.796;9.026;2023-05-16T14:28:13;5.13;;;2.90;;
15297;SDS011;7750;48.796;9.026;2023-05-16T14:33:14;2.87;;;2.23;;
15297;SDS011;7750;48.796;9.026;2023-05-16T14:38:15;3.80;;;2.13;;
15297;SDS011;7750;48.796;9.026;2023-05-16T14:43:16;4.33;;;2.57;;
15297;SDS011;7750;48.796;9.026;2023-05-16T14:48:16;5.33;;;2.60;;
15297;SDS011;7750;48.796;9.026;2023-05-16T14:53:17;6.90;;;2.73;;
15297;SDS011;7750;48.796;9.026;2023-05-16T14:58:18;5.77;;;2.30;;
15297;SDS011;7750;48.796;9.026;2023-05-16T15:03:18;3.50;;;2.70;;
15297;SDS011;7750;48.796;9.026;2023-05-16T15:08:19;4.37;;;2.30;;
15297;SDS011;7750;48.796;9.026;2023-05-16T15:13:19;5.60;;;3.30;;
15297;SDS011;7750;48.796;9.026;2023-05-16T15:18:20;7.37;;;3.30;;
15297;SDS011;7750;48.796;9.026;2023-05-16T15:23:21;7.33;;;2.83;;
15297;SDS011;7750;48.796;9.026;2023-05-16T15:28:21;8.20;;;2.63;;
15297;SDS011;7750;48.796;9.026;2023-05-16T15:33:22;8.13;;;3.10;;
15297;SDS011;7750;48.796;9.026;2023-05-16T15:38:23;6.60;;;2.37;;
15297;SDS011;7750;48.796;9.026;2023-05-16T15:43:23;4.77;;;2.50;;
15297;SDS011;7750;48.796;9.026;2023-05-16T15:48:24;4.50;;;2.90;;
15297;SDS011;7750;48.796;9.026;2023-05-16T15:53:25;7.00;;;3.00;;
15297;SDS011;7750;48.796;9.026;2023-05-16T15:58:25;13.27;;;9.03;;
15297;SDS011;7750;48.796;9.026;2023-05-16T16:03:26;6.90;;;4.00;;
15297;SDS011;7750;48.796;9.026;2023-05-16T16:08:26;6.30;;;4.03;;
15297;SDS011;7750;48.796;9.026;2023-05-16T16:13:27;7.20;;;3.20;;
15297;SDS011;7750;48.796;9.026;2023-05-16T16:18:28;8.17;;;2.77;;
15297;SDS011;7750;48.796;9.026;2023-05-16T16:23:29;5.90;;;3.13;;
15297;SDS011;7750;48.796;9.026;2023-05-16T16:28:30;6.93;;;2.30;;
15297;SDS011;7750;48.796;9.026;2023-05-16T16:33:31;4.67;;;2.30;;
15297;SDS011;7750;48.796;9.026;2023-05-16T16:38:33;5.17;;;2.63;;
15297;SDS011;7750;48.796;9.026;2023-05-16T16:43:33;6.60;;;2.57;;
15297;SDS011;7750;48.796;9.026;2023-05-16T16:48:35;3.73;;;2.03;;
15297;SDS011;7750;48.796;9.026;2023-05-16T16:53:36;5.57;;;2.37;;
15297;SDS011;7750;48.796;9.026;2023-05-16T16:58:37;3.93;;;2.30;;
15297;SDS011;7750;48.796;9.026;2023-05-16T17:03:38;5.07;;;2.20;;
15297;SDS011;7750;48.796;9.026;2023-05-16T17:08:38;6.93;;;2.20;;
15297;SDS011;7750;48.796;9.026;2023-05-16T17:13:39;4.80;;;2.17;;
15297;SDS011;7750;48.796;9.026;2023-05-16T17:18:40;2.80;;;1.93;;
15297;SDS011;7750;48.796;9.026;2023-05-16T17:23:41;6.40;;;2.97;;
15297;SDS011;7750;48.796;9.026;2023-05-16T17:28:43;4.43;;;3.33;;
15297;SDS011;7750;48.796;9.026;2023-05-16T17:33:45;5.80;;;2.43;;
15297;SDS011;7750;48.796;9.026;2023-05-16T17:38:45;14.17;;;2.43;;
15297;SDS011;7750;48.796;9.026;2023-05-16T17:43:46;5.37;;;2.20;;
15297;SDS011;7750;48.796;9.026;2023-05-16T17:48:47;5.53;;;2.30;;
15297;SDS011;7750;48.796;9.026;2023-05-16T17:53:48;5.27;;;2.60;;
15297;SDS011;7750;48.796;9.026;2023-05-16T17:58:49;4.30;;;2.33;;
15297;SDS011;7750;48.796;9.026;2023-05-16T18:03:49;3.53;;;2.57;;
15297;SDS011;7750;48.796;9.026;2023-05-16T18:08:50;4.80;;;2.50;;
15297;SDS011;7750;48.796;9.026;2023-05-16T18:13:51;5.70;;;2.20;;
15297;SDS011;7750;48.796;9.026;2023-05-16T18:18:52;13.93;;;5.50;;
15297;SDS011;7750;48.796;9.026;2023-05-16T18:23:53;7.77;;;3.20;;
15297;SDS011;7750;48.796;9.026;2023-05-16T18:28:56;6.00;;;2.87;;
15297;SDS011;7750;48.796;9.026;2023-05-16T18:33:57;6.30;;;2.47;;
15297;SDS011;7750;48.796;9.026;2023-05-16T18:39:00;3.13;;;2.00;;
15297;SDS011;7750;48.796;9.026;2023-05-16T18:44:01;3.37;;;1.90;;
15297;SDS011;7750;48.796;9.026;2023-05-16T18:49:02;2.53;;;1.50;;
15297;SDS011;7750;48.796;9.026;2023-05-16T18:54:02;2.10;;;1.67;;
15297;SDS011;7750;48.796;9.026;2023-05-16T18:59:03;9.07;;;1.90;;
15297;SDS011;7750;48.796;9.026;2023-05-16T19:04:05;3.43;;;1.57;;
15297;SDS011;7750;48.796;9.026;2023-05-16T19:09:06;7.00;;;2.13;;
15297;SDS011;7750;48.796;9.026;2023-05-16T19:14:08;4.00;;;1.87;;
15297;SDS011;7750;48.796;9.026;2023-05-16T19:19:09;5.10;;;1.97;;
15297;SDS011;7750;48.796;9.026;2023-05-16T19:24:09;9.33;;;2.03;;
15297;SDS011;7750;48.796;9.026;2023-05-16T19:29:10;2.80;;;1.80;;
15297;SDS011;7750;48.796;9.026;2023-05-16T19:34:10;8.07;;;1.70;;
15297;SDS011;7750;48.796;9.026;2023-05-16T19:39:11;4.57;;;1.60;;
15297;SDS011;7750;48.796;9.026;2023-05-16T19:44:12;4.20;;;2.03;;
15297;SDS011;7750;48.796;9.026;2023-05-16T19:49:12;3.13;;;1.60;;
15297;SDS011;7750;48.796;9.026;2023-05-16T19:54:15;4.97;;;1.93;;
15297;SDS011;7750;48.796;9.026;2023-05-16T19:59:15;3.77;;;1.50;;
15297;SDS011;7750;48.796;9.026;2023-05-16T20:04:16;4.63;;;1.70;;
15297;SDS011;7750;48.796;9.026;2023-05-16T20:09:17;5.53;;;2.23;;
15297;SDS011;7750;48.796;9.026;2023-05-16T20:14:18;3.03;;;1.40;;
15297;SDS011;7750;48.796;9.026;2023-05-16T20:19:18;2.37;;;1.37;;
15297;SDS011;7750;48.796;9.026;2023-05-16T20:24:19;4.53;;;1.70;;
15297;SDS011;7750;48.796;9.026;2023-05-16T20:29:20;4.90;;;2.30;;
15297;SDS011;7750;48.796;9.026;2023-05-16T20:34:22;4.87;;;2.03;;
15297;SDS011;7750;48.796;9.026;2023-05-16T20:39:23;6.37;;;2.00;;
15297;SDS011;7750;48.796;9.026;2023-05-16T20:44:27;3.50;;;1.93;;
15297;SDS011;7750;48.796;9.026;2023-05-16T20:49:28;3.00;;;1.60;;
15297;SDS011;7750;48.796;9.026;2023-05-16T20:54:29;3.43;;;1.63;;
15297;SDS011;7750;48.796;9.026;2023-05-16T20:59:29;8.33;;;2.10;;
15297;SDS011;7750;48.796;9.026;2023-05-16T21:04:31;2.30;;;1.70;;
15297;SDS011;7750;48.796;9.026;2023-05-16T21:09:31;3.60;;;1.73;;
15297;SDS011;7750;48.796;9.026;2023-05-16T21:14:32;2.97;;;1.80;;
15297;SDS011;7750;48.796;9.026;2023-05-16T21:19:33;4.20;;;1.70;;
15297;SDS011;7750;48.796;9.026;2023-05-16T21:24:34;3.53;;;1.90;;
15297;SDS011;7750;48.796;9.026;2023-05-16T21:29:36;5.10;;;2.00;;
15297;SDS011;7750;48.796;9.026;2023-05-16T21:34:37;3.70;;;1.73;;
15297;SDS011;7750;48.796;9.026;2023-05-16T21:39:37;5.57;;;1.97;;
15297;SDS011;7750;48.796;9.026;2023-05-16T21:44:39;3.83;;;1.90;;
15297;SDS011;7750;48.796;9.026;2023-05-16T21:49:40;3.27;;;1.70;;
15297;SDS011;7750;48.796;9.026;2023-05-16T21:54:40;4.77;;;1.73;;
15297;SDS011;7750;48.796;9.026;2023-05-16T21:59:41;3.10;;;1.70;;
15297;SDS011;7750;48.796;9.026;2023-05-16T22:04:42;5.30;;;1.80;;
15297;SDS011;7750;48.796;9.026;2023-05-16T22:09:43;4.93;;;1.40;;
15297;SDS011;7750;48.796;9.026;2023-05-16T22:14:43;3.37;;;1.50;;
15297;SDS011;7750;48.796;9.026;2023-05-16T22:19:44;3.90;;;1.70;;
15297;SDS011;7750;48.796;9.026;2023-05-16T22:24:45;6.03;;;1.83;;
15297;SDS011;7750;48.796;9.026;2023-05-16T22:29:46;4.17;;;2.00;;
15297;SDS011;7750;48.796;9.026;2023-05-16T22:34:46;4.00;;;1.40;;
15297;SDS011;7750;48.796;9.026;2023-05-16T22:39:47;4.17;;;1.53;;
15297;SDS011;7750;48.796;9.026;2023-05-16T22:44:48;2.60;;;1.57;;
15297;SDS011;7750;48.796;9.026;2023-05-16T22:49:49;5.13;;;1.83;;
15297;SDS011;7750;48.796;9.026;2023-05-16T22:54:49;4.33;;;2.17;;
15297;SDS011;7750;48.796;9.026;2023-05-16T22:59:50;3.80;;;1.60;;
15297;SDS011;7750;48.796;9.026;2023-05-16T23:04:51;3.93;;;1.60;;
15297;SDS011;7750;48.796;9.026;2023-05-16T23:09:52;2.40;;;1.67;;
15297;SDS011;7750;48.796;9.026;2023-05-16T23:14:52;4.77;;;1.90;;
15297;SDS011;7750;48.796;9.026;2023-05-16T23:19:53;8.27;;;1.80;;
15297;SDS011;7750;48.796;9.026;2023-05-16T23:24:53;9.27;;;2.37;;
15297;SDS011;7750;48.796;9.026;2023-05-16T23:29:54;4.73;;;2.10;;
15297;SDS011;7750;48.796;9.026;2023-05-16T23:34:55;5.03;;;1.97;;
15297;SDS011;7750;48.796;9.026;2023-05-16T23:39:55;2.30;;;1.60;;
15297;SDS011;7750;48.796;9.026;2023-05-16T23:44:56;3.53;;;1.90;;
15297;SDS011;7750;48.796;9.026;2023-05-16T23:49:57;4.80;;;1.73;;
15297;SDS011;7750;48.796;9.026;2023-05-16T23:54:57;3.00;;;1.57;;
15297;SDS011;7750;48.796;9.026;2023-05-16T23:59:58;4.40;;;1.63;;
